Creswell, United Kingdom
Current Conditions -  °F | °C
As of 10:50 AM on Saturday 01 Nov 2014 (Local Time) from EGCN Reporting Station
Few Clouds Few Clouds  
Wind Chill: 59°   Ceiling: Unl
Heat Index: 59°   Visibility: 6mi
Dew Point: 48°   Wind: 18mph
Humidity: 67%   Direction: 210°SSW
Pressure: 29.94"   Gusts: NA
Location:  53.25°N, 1.22°W
Report Text: EGCN 011050Z 21016KT 9999 FEW026 15/09 Q1014
Loading
Personal Weather Stations






























Interactive Weather Map
Tropical Storm Tracking
New forecast layout! Learn more

10-Day Weather Forecast

Advertisements
Track Severe Weather on mobile